Time;durP1;ratioP1;P1;durP2;ratioP2;P2;SDS_P1;SDS_P2;PMS_P1;PMS_P2;Temp;Humidity;BMP_temperature;BMP_pressure;BME280_temperature;BME280_humidity;BME280_pressure;Samples;Min_cycle;Max_cycle;Signal;HPM_P1;HPM_P2
2021/06/20 00:02:24;;;;;;;25.77;14.53;;;27.30;66.60;;;;;;5069417;28;20884;-76
2021/06/20 00:04:50;;;;;;;16.60;12.47;;;27.30;66.70;;;;;;5069341;28;20249;-76
2021/06/20 00:07:15;;;;;;;22.20;13.67;;;27.40;66.40;;;;;;5069577;28;20273;-75
2021/06/20 00:09:41;;;;;;;22.30;14.47;;;27.30;67.20;;;;;;5068252;28;20232;-77
2021/06/20 00:12:07;;;;;;;19.70;13.40;;;27.00;68.50;;;;;;5072210;28;20185;-76
2021/06/20 00:14:33;;;;;;;22.90;14.07;;;26.80;69.40;;;;;;5072780;28;20211;-76
2021/06/20 00:16:59;;;;;;;21.73;14.13;;;26.80;69.90;;;;;;5073180;28;20432;-76
2021/06/20 00:19:24;;;;;;;20.73;13.80;;;26.70;70.10;;;;;;5073190;28;20214;-77
2021/06/20 00:21:50;;;;;;;20.23;14.20;;;26.70;70.20;;;;;;5073592;28;20763;-76
2021/06/20 00:24:16;;;;;;;19.13;13.60;;;26.70;70.20;;;;;;5073241;28;20223;-75
2021/06/20 00:26:41;;;;;;;20.60;13.60;;;26.70;69.90;;;;;;5063469;28;20186;-77
2021/06/20 00:29:07;;;;;;;14.63;12.23;;;26.50;70.80;;;;;;5085884;28;20587;-76
2021/06/20 00:31:33;;;;;;;20.27;13.97;;;26.40;70.50;;;;;;5074064;28;20186;-75
2021/06/20 00:33:59;;;;;;;19.37;12.97;;;26.40;69.70;;;;;;5073808;28;20206;-76
2021/06/20 00:36:24;;;;;;;16.90;12.63;;;26.50;69.50;;;;;;5075847;28;20203;-76
2021/06/20 00:38:50;;;;;;;23.07;13.30;;;26.50;69.40;;;;;;5079008;28;20427;-76
2021/06/20 00:41:16;;;;;;;26.17;13.43;;;26.60;69.20;;;;;;5083320;28;20207;-75
2021/06/20 00:43:42;;;;;;;20.40;12.77;;;26.60;68.80;;;;;;5077417;28;20195;-76
2021/06/20 00:46:09;;;;;;;21.10;13.60;;;26.70;68.00;;;;;;5076956;28;20660;-78
2021/06/20 00:48:35;;;;;;;21.87;12.57;;;26.80;67.20;;;;;;5078191;28;20195;-76
2021/06/20 00:51:01;;;;;;;16.30;13.50;;;26.80;67.20;;;;;;5086545;28;20433;-76
2021/06/20 00:53:27;;;;;;;19.30;13.30;;;26.80;67.00;;;;;;5089120;28;20183;-76
2021/06/20 00:55:53;;;;;;;20.30;13.00;;;26.80;66.90;;;;;;5075320;28;20452;-76
2021/06/20 00:58:21;;;;;;;20.23;12.80;;;26.80;67.60;;;;;;5079032;28;20187;-76
2021/06/20 01:00:47;;;;;;;19.50;13.30;;;26.70;67.90;;;;;;5090195;28;20218;-77
2021/06/20 01:03:13;;;;;;;19.80;12.40;;;26.70;68.00;;;;;;5089930;28;20416;-75
2021/06/20 01:05:40;;;;;;;17.20;12.43;;;26.70;67.90;;;;;;5081739;28;20439;-77
2021/06/20 01:08:06;;;;;;;28.37;11.80;;;26.70;67.90;;;;;;5074500;28;20469;-76
2021/06/20 01:10:35;;;;;;;20.83;12.17;;;26.80;66.90;;;;;;5074221;28;20420;-76
2021/06/20 01:13:02;;;;;;;28.93;13.07;;;26.80;66.30;;;;;;5074009;28;20172;-75
2021/06/20 01:15:28;;;;;;;24.70;11.57;;;26.90;65.80;;;;;;5075664;28;20790;-76
2021/06/20 01:17:55;;;;;;;28.73;11.87;;;26.90;65.10;;;;;;5074427;28;20426;-77
2021/06/20 01:20:21;;;;;;;23.47;11.27;;;27.00;64.50;;;;;;5074899;28;20179;-76
2021/06/20 01:22:49;;;;;;;27.47;10.50;;;27.10;63.80;;;;;;5073220;28;20424;-77
2021/06/20 01:25:17;;;;;;;30.77;10.73;;;27.10;63.10;;;;;;5075914;28;20199;-77
2021/06/20 01:27:50;;;;;;;27.30;10.20;;;27.20;62.80;;;;;;5073910;28;20521;-76
2021/06/20 01:30:26;;;;;;;38.63;11.60;;;27.20;62.50;;;;;;5081127;28;20433;-77
2021/06/20 01:32:54;;;;;;;32.03;10.93;;;27.20;61.90;;;;;;5086327;28;20424;-77
2021/06/20 01:35:21;;;;;;;32.07;11.03;;;27.30;61.60;;;;;;5085222;28;20432;-77
2021/06/20 01:37:47;;;;;;;30.93;10.57;;;27.30;61.60;;;;;;5075075;28;21004;-77
2021/06/20 01:40:15;;;;;;;33.10;10.33;;;27.30;61.50;;;;;;5075053;28;20519;-76
2021/06/20 01:42:42;;;;;;;29.10;11.30;;;27.20;61.50;;;;;;5080959;28;20763;-77
2021/06/20 01:45:09;;;;;;;35.07;9.70;;;27.20;61.60;;;;;;5083606;28;20446;-78
2021/06/20 01:47:36;;;;;;;33.13;11.23;;;27.20;61.70;;;;;;5075574;28;20425;-77
2021/06/20 01:50:06;;;;;;;35.97;10.10;;;27.10;61.90;;;;;;5077795;28;20432;-77
2021/06/20 01:52:33;;;;;;;34.47;10.40;;;27.10;61.90;;;;;;5076184;28;20510;-76
2021/06/20 01:54:59;;;;;;;32.17;10.37;;;27.10;61.90;;;;;;5071623;28;21383;-76
2021/06/20 01:57:25;;;;;;;37.20;11.50;;;27.00;62.20;;;;;;5065167;28;20566;-77
2021/06/20 01:59:53;;;;;;;31.43;9.90;;;27.00;62.30;;;;;;5074634;28;20664;-76
2021/06/20 02:02:20;;;;;;;37.63;10.57;;;27.00;62.30;;;;;;5074080;28;20457;-77
2021/06/20 02:04:47;;;;;;;33.47;9.50;;;27.00;62.50;;;;;;5073446;28;20980;-76
2021/06/20 02:07:13;;;;;;;37.43;11.47;;;26.90;62.30;;;;;;5071656;28;20499;-76
2021/06/20 02:09:40;;;;;;;36.03;10.93;;;26.90;62.50;;;;;;5067242;28;20781;-75
2021/06/20 02:12:07;;;;;;;31.20;10.70;;;26.80;62.60;;;;;;5074192;28;20794;-76
2021/06/20 02:14:33;;;;;;;35.67;10.70;;;26.80;62.90;;;;;;5073800;28;20444;-75
2021/06/20 02:16:59;;;;;;;43.80;9.77;;;26.70;63.10;;;;;;5070118;28;20445;-76
2021/06/20 02:19:25;;;;;;;32.33;10.20;;;26.70;63.10;;;;;;5074170;28;20460;-77
2021/06/20 02:21:51;;;;;;;32.53;10.70;;;26.60;63.40;;;;;;5069566;28;20214;-77
2021/06/20 02:24:17;;;;;;;39.10;10.90;;;26.60;63.50;;;;;;5078160;28;20189;-76
2021/06/20 02:26:42;;;;;;;33.57;10.37;;;26.60;63.70;;;;;;5087654;28;20728;-77
2021/06/20 02:29:08;;;;;;;30.90;9.70;;;26.50;63.90;;;;;;5072183;28;20264;-76
2021/06/20 02:31:34;;;;;;;36.73;9.53;;;26.50;64.10;;;;;;5071394;28;20273;-76
2021/06/20 02:34:00;;;;;;;35.83;10.30;;;26.50;64.50;;;;;;5072803;28;20213;-76
2021/06/20 02:36:26;;;;;;;39.73;11.20;;;26.40;64.70;;;;;;5073235;28;20203;-77
2021/06/20 02:38:52;;;;;;;65.50;10.10;;;26.40;65.00;;;;;;5073551;28;20206;-75
2021/06/20 02:41:18;;;;;;;25.50;9.30;;;26.40;65.10;;;;;;5072889;28;20814;-78
2021/06/20 02:43:44;;;;;;;28.80;10.07;;;26.30;65.60;;;;;;5072784;28;20846;-75
2021/06/20 02:46:09;;;;;;;36.47;8.87;;;26.30;65.70;;;;;;5069916;28;20525;-76
2021/06/20 02:48:35;;;;;;;25.80;9.60;;;26.30;66.00;;;;;;5071743;28;20607;-77
2021/06/20 02:51:01;;;;;;;29.50;9.87;;;26.20;66.10;;;;;;5072334;28;20191;-77
2021/06/20 02:53:27;;;;;;;40.57;11.37;;;26.20;66.30;;;;;;5072666;28;20189;-76
2021/06/20 02:55:53;;;;;;;30.00;10.10;;;26.20;66.40;;;;;;5078727;28;20444;-76
2021/06/20 02:58:19;;;;;;;24.70;9.80;;;26.20;66.60;;;;;;5083609;28;20186;-76
2021/06/20 03:00:44;;;;;;;36.63;10.30;;;26.20;66.40;;;;;;5072076;28;20222;-75
2021/06/20 03:03:10;;;;;;;34.43;10.57;;;26.20;66.40;;;;;;5072941;28;20190;-77
2021/06/20 03:05:36;;;;;;;31.60;10.67;;;26.20;66.60;;;;;;5069264;28;20207;-77
2021/06/20 03:08:01;;;;;;;36.10;9.00;;;26.20;66.30;;;;;;5065291;28;20182;-75
2021/06/20 03:10:27;;;;;;;31.00;9.80;;;26.20;66.40;;;;;;5071810;28;20235;-76
2021/06/20 03:12:53;;;;;;;37.03;11.00;;;26.30;65.70;;;;;;5070793;28;20178;-76
2021/06/20 03:15:19;;;;;;;30.83;9.90;;;26.20;66.00;;;;;;5074215;28;21049;-76
2021/06/20 03:17:44;;;;;;;32.47;9.63;;;26.20;66.30;;;;;;5077487;28;20199;-75
2021/06/20 03:20:11;;;;;;;35.30;9.97;;;26.30;66.10;;;;;;5073056;28;20649;-76
2021/06/20 03:22:36;;;;;;;41.03;10.87;;;26.30;66.10;;;;;;5069901;28;20210;-76
2021/06/20 03:25:03;;;;;;;47.40;11.97;;;26.20;66.40;;;;;;5060085;28;20440;-76
2021/06/20 03:27:29;;;;;;;31.23;9.40;;;26.10;67.90;;;;;;5071907;28;20217;-75
2021/06/20 03:29:54;;;;;;;34.43;9.20;;;26.20;68.60;;;;;;5070726;28;21137;-76
2021/06/20 03:32:23;;;;;;;30.97;11.57;;;26.20;69.70;;;;;;5066978;28;20197;-76
2021/06/20 03:34:49;;;;;;;32.60;11.27;;;26.00;70.80;;;;;;5071407;28;20233;-76
2021/06/20 03:37:15;;;;;;;35.33;11.53;;;25.90;71.80;;;;;;5072531;28;20587;-77
2021/06/20 03:39:42;;;;;;;34.23;10.97;;;25.90;72.10;;;;;;5071887;28;20559;-77
2021/06/20 03:42:08;;;;;;;34.03;11.20;;;25.70;73.20;;;;;;5070927;28;20834;-77
2021/06/20 03:44:34;;;;;;;37.37;10.90;;;25.60;73.70;;;;;;5071290;28;20445;-77
2021/06/20 03:47:00;;;;;;;40.40;10.50;;;25.60;73.90;;;;;;5069276;28;20212;-77
2021/06/20 03:49:26;;;;;;;37.10;10.70;;;25.70;73.60;;;;;;5070718;28;20264;-76
2021/06/20 03:51:51;;;;;;;35.73;11.30;;;25.80;73.50;;;;;;5071912;28;20213;-76
2021/06/20 03:54:18;;;;;;;29.67;9.83;;;25.90;73.00;;;;;;5066093;28;20429;-76
2021/06/20 03:56:44;;;;;;;35.27;10.80;;;25.80;73.00;;;;;;5065198;28;20178;-76
2021/06/20 03:59:10;;;;;;;26.83;11.23;;;25.80;73.00;;;;;;5070019;28;20856;-77
2021/06/20 04:01:36;;;;;;;29.47;10.93;;;25.90;72.90;;;;;;5071655;28;20465;-76
2021/06/20 04:04:03;;;;;;;31.73;10.87;;;25.90;72.40;;;;;;5071193;28;20425;-76
2021/06/20 04:06:29;;;;;;;32.70;10.10;;;26.00;72.00;;;;;;5074869;28;20933;-76
2021/06/20 04:08:55;;;;;;;29.07;10.80;;;26.10;71.60;;;;;;5072512;28;20424;-75
2021/06/20 04:11:20;;;;;;;27.50;10.07;;;26.10;71.30;;;;;;5070844;28;20179;-77
2021/06/20 04:13:46;;;;;;;28.07;9.77;;;26.10;71.60;;;;;;5071043;28;20240;-76
2021/06/20 04:16:12;;;;;;;33.60;11.13;;;26.00;71.40;;;;;;5070286;28;20203;-76
2021/06/20 04:18:38;;;;;;;31.07;11.00;;;26.00;71.40;;;;;;5071807;28;20243;-77
2021/06/20 04:21:04;;;;;;;34.50;10.87;;;26.00;71.30;;;;;;5071165;28;20659;-75
2021/06/20 04:23:29;;;;;;;38.37;10.93;;;26.10;71.00;;;;;;5071645;28;20199;-76
2021/06/20 04:25:55;;;;;;;29.80;9.20;;;26.10;70.80;;;;;;5071348;28;20519;-76
2021/06/20 04:28:21;;;;;;;27.60;8.87;;;26.00;70.70;;;;;;5068443;28;20187;-76
2021/06/20 04:30:53;;;;;;;29.73;10.23;;;25.90;69.90;;;;;;5080588;28;20466;-76
2021/06/20 04:33:18;;;;;;;31.30;9.70;;;25.90;70.80;;;;;;5088399;28;20449;-76
2021/06/20 04:35:44;;;;;;;27.10;8.40;;;25.80;71.40;;;;;;5078702;28;21388;-76
2021/06/20 04:38:10;;;;;;;30.80;9.30;;;25.80;71.60;;;;;;5069374;28;20671;-76
2021/06/20 04:40:35;;;;;;;25.93;9.70;;;25.70;71.70;;;;;;5081399;28;20251;-74
2021/06/20 04:43:07;;;;;;;30.00;9.40;;;25.70;71.80;;;;;;5087809;28;20592;-76
2021/06/20 04:45:33;;;;;;;28.10;10.60;;;25.80;71.10;;;;;;5072397;28;20202;-76
2021/06/20 04:47:59;;;;;;;29.17;9.47;;;25.90;72.00;;;;;;5071421;28;20511;-75
2021/06/20 04:50:25;;;;;;;24.13;8.40;;;25.90;72.00;;;;;;5074491;28;20423;-75
2021/06/20 04:52:51;;;;;;;25.73;9.50;;;26.00;72.40;;;;;;5070598;28;20254;-77
2021/06/20 04:55:17;;;;;;;33.03;10.03;;;26.00;73.00;;;;;;5070074;28;21031;-75
2021/06/20 04:57:42;;;;;;;27.67;8.97;;;26.00;73.00;;;;;;5073764;28;20662;-75
2021/06/20 05:00:10;;;;;;;19.97;8.67;;;26.00;73.70;;;;;;5076355;28;20243;-76
2021/06/20 05:02:36;;;;;;;22.10;9.53;;;25.90;73.90;;;;;;5075046;28;20217;-76
2021/06/20 05:05:05;;;;;;;32.07;10.53;;;25.90;74.50;;;;;;5080288;28;20464;-76
2021/06/20 05:07:30;;;;;;;25.93;9.13;;;25.90;74.90;;;;;;5078938;28;20428;-76
2021/06/20 05:09:57;;;;;;;34.97;9.60;;;25.90;74.50;;;;;;5076770;28;20416;-76
2021/06/20 05:12:23;;;;;;;27.10;10.77;;;26.00;73.60;;;;;;5071448;28;20558;-76
2021/06/20 05:14:49;;;;;;;29.23;9.40;;;26.00;74.30;;;;;;5074700;28;20439;-76
2021/06/20 05:17:18;;;;;;;30.90;8.50;;;26.00;74.80;;;;;;5074261;28;21013;-76
2021/06/20 05:19:44;;;;;;;30.00;8.23;;;26.10;71.40;;;;;;5074723;28;20193;-77
2021/06/20 05:22:11;;;;;;;23.93;7.60;;;25.80;71.80;;;;;;5073268;28;20550;-77
2021/06/20 05:24:37;;;;;;;18.40;7.10;;;25.40;72.10;;;;;;5075968;28;20448;-77
2021/06/20 05:27:03;;;;;;;25.07;8.53;;;25.20;72.90;;;;;;5068572;28;20423;-77
2021/06/20 05:29:29;;;;;;;18.03;6.93;;;25.20;73.30;;;;;;5074635;28;20529;-77
2021/06/20 05:31:55;;;;;;;16.50;6.30;;;25.20;72.60;;;;;;5073970;28;20902;-77
2021/06/20 05:34:21;;;;;;;23.33;7.13;;;25.10;72.10;;;;;;5075237;28;20253;-76
2021/06/20 05:36:48;;;;;;;28.60;7.70;;;25.10;72.70;;;;;;5074036;28;20196;-77
2021/06/20 05:39:14;;;;;;;21.87;6.80;;;25.10;73.00;;;;;;5073944;28;20184;-77
2021/06/20 05:41:40;;;;;;;16.33;6.40;;;25.10;73.00;;;;;;5081118;28;20498;-76
2021/06/20 05:44:06;;;;;;;21.20;6.90;;;25.00;73.30;;;;;;5077385;28;20415;-79
2021/06/20 05:46:32;;;;;;;18.67;5.73;;;25.00;73.70;;;;;;5074228;28;20658;-76
2021/06/20 05:48:57;;;;;;;15.03;6.00;;;25.10;73.90;;;;;;5074477;28;20176;-78
2021/06/20 05:51:23;;;;;;;15.33;6.10;;;25.20;71.70;;;;;;5073853;28;20195;-78
2021/06/20 05:53:49;;;;;;;16.00;6.30;;;25.30;72.30;;;;;;5074260;28;20209;-77
2021/06/20 05:56:15;;;;;;;16.93;5.70;;;25.40;71.30;;;;;;5074419;28;20251;-75
2021/06/20 05:58:40;;;;;;;17.77;5.70;;;25.40;70.70;;;;;;5073780;28;20196;-76
2021/06/20 06:01:06;;;;;;;12.33;4.70;;;25.50;70.70;;;;;;5077222;28;20199;-75
2021/06/20 06:03:34;;;;;;;12.77;6.00;;;25.40;70.10;;;;;;5073487;28;20176;-76
2021/06/20 06:06:00;;;;;;;15.43;6.30;;;25.30;70.40;;;;;;5070235;28;20492;-75
2021/06/20 06:08:26;;;;;;;13.83;4.70;;;25.30;70.70;;;;;;5074021;28;20423;-77
2021/06/20 06:10:52;;;;;;;12.80;5.23;;;25.30;70.40;;;;;;5076001;28;20430;-76
2021/06/20 06:13:18;;;;;;;13.23;5.00;;;25.20;69.70;;;;;;5076973;28;20188;-76
2021/06/20 06:15:44;;;;;;;17.13;5.07;;;25.20;70.10;;;;;;5075324;28;20468;-76
2021/06/20 06:18:09;;;;;;;15.07;5.40;;;25.30;69.70;;;;;;5072278;28;20184;-76
2021/06/20 06:20:35;;;;;;;13.03;5.43;;;25.50;69.80;;;;;;5067247;28;20181;-77
2021/06/20 06:23:01;;;;;;;12.80;5.20;;;25.70;69.20;;;;;;5071748;28;20632;-75
2021/06/20 06:25:27;;;;;;;13.57;5.63;;;25.70;68.50;;;;;;5072145;28;20572;-75
2021/06/20 06:27:54;;;;;;;18.27;5.90;;;25.80;67.90;;;;;;5079419;28;20550;-75
2021/06/20 06:30:20;;;;;;;16.23;5.03;;;25.90;67.30;;;;;;5073167;28;20205;-75
2021/06/20 06:32:47;;;;;;;14.30;4.83;;;25.90;66.90;;;;;;5070733;28;20436;-74
2021/06/20 06:35:13;;;;;;;13.30;5.10;;;25.80;67.30;;;;;;5071828;28;20483;-76
2021/06/20 06:37:40;;;;;;;14.00;6.13;;;25.80;67.70;;;;;;5071687;28;20432;-75
2021/06/20 06:40:08;;;;;;;12.90;5.50;;;25.90;66.40;;;;;;5069020;28;20450;-75
2021/06/20 06:42:34;;;;;;;16.83;5.53;;;25.90;67.60;;;;;;5070999;28;20503;-76
2021/06/20 06:45:00;;;;;;;22.07;6.47;;;25.90;68.00;;;;;;5073921;28;20476;-75
2021/06/20 06:47:26;;;;;;;13.93;6.20;;;25.90;68.80;;;;;;5073145;28;20187;-74
2021/06/20 06:49:52;;;;;;;15.27;6.40;;;25.90;68.90;;;;;;5072523;28;20209;-75
2021/06/20 06:52:18;;;;;;;19.80;5.90;;;25.90;69.20;;;;;;5070514;28;20435;-75
2021/06/20 06:54:51;;;;;;;18.47;6.40;;;25.90;69.90;;;;;;5069669;28;20210;-73
2021/06/20 06:57:21;;;;;;;22.83;8.83;;;26.10;69.90;;;;;;5070465;28;20524;-73
2021/06/20 06:59:48;;;;;;;19.03;7.57;;;26.30;71.00;;;;;;5072733;28;20428;-73
2021/06/20 07:02:14;;;;;;;22.60;9.97;;;26.30;70.20;;;;;;5070697;28;20467;-73
2021/06/20 07:04:40;;;;;;;25.83;10.70;;;26.20;73.50;;;;;;5070748;28;20469;-73
2021/06/20 07:07:06;;;;;;;24.13;11.10;;;26.10;74.20;;;;;;5070698;28;20456;-71
2021/06/20 07:09:32;;;;;;;24.03;10.10;;;26.10;74.20;;;;;;5070517;28;20581;-71
2021/06/20 07:11:58;;;;;;;20.90;10.20;;;26.10;73.70;;;;;;5073798;28;20186;-71
2021/06/20 07:14:24;;;;;;;31.50;9.40;;;26.20;73.00;;;;;;5075554;28;20182;-72
2021/06/20 07:16:50;;;;;;;29.30;9.80;;;26.20;73.20;;;;;;5070677;28;20425;-73
2021/06/20 07:19:16;;;;;;;27.63;9.33;;;26.10;73.30;;;;;;5070155;28;20200;-71
2021/06/20 07:21:41;;;;;;;24.33;9.17;;;25.80;73.70;;;;;;5067763;28;20462;-69
2021/06/20 07:24:08;;;;;;;19.90;8.30;;;25.80;73.90;;;;;;5070247;28;20316;-73
2021/06/20 07:26:33;;;;;;;24.90;9.03;;;25.60;73.70;;;;;;5074316;28;20340;-71
2021/06/20 07:29:00;;;;;;;27.63;8.13;;;25.20;75.90;;;;;;5071586;28;20537;-72
2021/06/20 07:31:26;;;;;;;25.63;8.90;;;25.40;75.10;;;;;;5069677;28;20187;-72
2021/06/20 07:33:52;;;;;;;14.73;8.40;;;25.40;74.80;;;;;;5069582;28;20455;-71
2021/06/20 07:36:18;;;;;;;18.03;7.30;;;25.60;73.90;;;;;;5069376;28;20446;-75
2021/06/20 07:38:44;;;;;;;23.00;8.63;;;25.40;74.80;;;;;;5071128;28;20420;-76
2021/06/20 07:41:10;;;;;;;21.80;7.57;;;25.30;75.40;;;;;;5068010;28;20213;-77
2021/06/20 07:43:36;;;;;;;22.30;8.10;;;25.20;75.50;;;;;;5069623;28;20413;-75
2021/06/20 07:46:02;;;;;;;21.07;7.00;;;25.50;75.10;;;;;;5070373;28;20203;-78
2021/06/20 07:48:29;;;;;;;26.23;8.60;;;25.60;74.50;;;;;;5070693;28;20477;-77
2021/06/20 07:50:55;;;;;;;25.57;8.10;;;25.90;73.60;;;;;;5070260;28;20235;-76
2021/06/20 07:53:21;;;;;;;17.83;7.67;;;26.00;73.50;;;;;;5070615;28;20452;-77
2021/06/20 07:55:47;;;;;;;20.93;8.03;;;26.00;72.90;;;;;;5064548;28;20501;-77
2021/06/20 07:58:12;;;;;;;14.23;8.03;;;26.00;73.20;;;;;;5082019;28;20429;-76
2021/06/20 08:00:38;;;;;;;24.20;8.93;;;26.10;72.90;;;;;;5084428;28;20204;-76
2021/06/20 08:03:04;;;;;;;18.43;7.27;;;26.20;72.40;;;;;;5088455;28;20259;-75
2021/06/20 08:05:30;;;;;;;22.87;8.27;;;26.10;72.60;;;;;;5070959;28;20647;-76
2021/06/20 08:07:56;;;;;;;19.30;6.80;;;26.00;72.60;;;;;;5070976;28;20183;-78
2021/06/20 08:10:22;;;;;;;20.57;8.60;;;26.10;72.70;;;;;;5071554;28;20183;-76
2021/06/20 08:12:47;;;;;;;20.27;7.73;;;26.00;72.90;;;;;;5070631;28;20783;-77
2021/06/20 08:15:14;;;;;;;13.43;7.70;;;25.80;73.30;;;;;;5070157;28;20203;-76
2021/06/20 08:17:41;;;;;;;17.47;7.40;;;25.60;74.20;;;;;;5070982;28;20243;-76
2021/06/20 08:20:08;;;;;;;19.80;9.27;;;25.80;73.70;;;;;;5066624;28;20507;-77
2021/06/20 08:22:34;;;;;;;18.80;6.60;;;25.90;73.30;;;;;;5065273;28;20467;-76
2021/06/20 08:24:59;;;;;;;19.77;8.23;;;25.90;73.50;;;;;;5067565;28;20450;-77
2021/06/20 08:27:25;;;;;;;23.90;7.87;;;25.90;73.00;;;;;;5065236;28;20561;-76
2021/06/20 08:29:53;;;;;;;16.63;8.10;;;26.00;72.10;;;;;;5070567;28;20195;-76
2021/06/20 08:32:19;;;;;;;16.60;9.10;;;26.00;72.10;;;;;;5072106;28;20267;-76
2021/06/20 08:34:45;;;;;;;20.17;9.00;;;26.20;72.00;;;;;;5073789;28;20499;-77
2021/06/20 08:37:11;;;;;;;11.83;6.87;;;26.40;71.70;;;;;;5074117;28;20911;-76
2021/06/20 08:39:37;;;;;;;17.53;7.40;;;26.40;70.80;;;;;;5074889;28;20222;-77
2021/06/20 08:42:03;;;;;;;29.77;8.30;;;26.10;72.10;;;;;;5074917;28;20241;-76
2021/06/20 08:44:30;;;;;;;19.57;7.60;;;25.80;73.30;;;;;;5081239;28;20187;-75
2021/06/20 08:46:58;;;;;;;17.80;7.97;;;26.00;72.70;;;;;;5065426;28;20408;-77
2021/06/20 08:49:25;;;;;;;18.00;7.53;;;26.20;71.60;;;;;;5077158;28;20527;-78
2021/06/20 08:51:53;;;;;;;17.83;7.90;;;26.40;71.10;;;;;;5081148;28;20425;-76
2021/06/20 08:54:19;;;;;;;16.63;7.67;;;26.20;71.30;;;;;;5092940;28;20442;-76
2021/06/20 08:56:47;;;;;;;18.27;7.20;;;26.10;72.10;;;;;;5078066;28;20506;-75
2021/06/20 08:59:14;;;;;;;19.83;8.87;;;26.40;71.30;;;;;;5070740;28;20462;-76
2021/06/20 09:01:40;;;;;;;21.07;8.13;;;26.50;71.00;;;;;;5074130;28;20468;-76
2021/06/20 09:04:06;;;;;;;14.27;6.93;;;26.50;70.70;;;;;;5074686;28;20425;-76
2021/06/20 09:06:31;;;;;;;22.80;8.30;;;26.50;70.40;;;;;;5073947;28;20863;-76
2021/06/20 09:09:00;;;;;;;17.53;7.00;;;26.50;70.20;;;;;;5073986;28;20426;-76
2021/06/20 09:11:36;;;;;;;17.10;8.10;;;26.40;70.80;;;;;;5079090;28;20202;-76
2021/06/20 09:14:16;;;;;;;19.20;7.83;;;26.50;70.70;;;;;;5075430;28;20422;-77
2021/06/20 09:16:49;;;;;;;27.33;8.60;;;26.70;69.70;;;;;;5068364;28;20424;-76
2021/06/20 09:22:22;;;;;;;10.60;6.37;;;26.90;68.30;;;;;;5026793;28;20542;-77
2021/06/20 09:25:05;;;;;;;21.00;7.10;;;27.00;68.80;;;;;;5033776;28;20993;-77
2021/06/20 09:27:31;;;;;;;15.87;7.10;;;27.10;67.70;;;;;;5036328;28;20239;-76
2021/06/20 09:30:12;;;;;;;15.17;7.10;;;27.10;68.00;;;;;;5013930;28;20507;-74
2021/06/20 09:32:54;;;;;;;14.33;6.60;;;27.20;68.20;;;;;;5030923;28;20464;-76
2021/06/20 09:35:20;;;;;;;16.53;6.60;;;27.20;67.60;;;;;;5025703;28;20447;-75
2021/06/20 09:37:58;;;;;;;14.00;6.97;;;27.20;67.60;;;;;;5031158;28;20466;-76
2021/06/20 09:40:29;;;;;;;16.07;7.50;;;27.40;67.30;;;;;;5030558;28;20503;-77
2021/06/20 09:42:55;;;;;;;15.47;8.17;;;27.60;65.80;;;;;;5029600;28;20487;-75
2021/06/20 09:45:32;;;;;;;24.50;7.77;;;27.80;65.80;;;;;;5030679;28;20443;-75
2021/06/20 09:47:58;;;;;;;22.77;7.73;;;28.00;64.80;;;;;;5030139;28;20428;-76
2021/06/20 09:50:37;;;;;;;19.43;7.87;;;28.10;65.00;;;;;;5025743;28;20439;-75
2021/06/20 09:53:03;;;;;;;14.70;6.50;;;28.30;63.20;;;;;;5030991;28;20962;-79
2021/06/20 09:55:29;;;;;;;11.43;5.90;;;28.30;62.60;;;;;;5032511;28;20459;-77
2021/06/20 09:57:59;;;;;;;17.10;7.07;;;28.40;62.60;;;;;;5034755;28;21040;-79
2021/06/20 10:00:25;;;;;;;19.97;7.50;;;28.60;62.20;;;;;;5070310;28;20181;-77
2021/06/20 10:02:51;;;;;;;17.80;6.77;;;28.20;63.80;;;;;;5075170;28;20473;-76
2021/06/20 10:05:17;;;;;;;22.50;6.80;;;28.30;63.50;;;;;;5074769;28;20251;-75
2021/06/20 10:07:42;;;;;;;13.57;6.47;;;28.30;63.20;;;;;;5074738;28;20189;-79
2021/06/20 10:10:10;;;;;;;16.43;5.87;;;28.40;62.90;;;;;;5073935;28;20200;-75
2021/06/20 10:12:36;;;;;;;20.77;6.53;;;28.50;62.00;;;;;;5066891;28;20192;-77
2021/06/20 10:15:09;;;;;;;17.80;6.40;;;28.50;59.60;;;;;;5081970;28;20442;-75
2021/06/20 10:17:57;;;;;;;12.30;5.80;;;28.60;60.60;;;;;;5074188;28;20521;-76
2021/06/20 10:20:32;;;;;;;13.87;4.73;;;28.40;59.90;;;;;;5075624;28;20444;-75
2021/06/20 10:22:58;;;;;;;11.93;5.37;;;28.00;60.40;;;;;;5065429;28;20489;-76
2021/06/20 10:25:32;;;;;;;11.73;4.60;;;27.90;57.80;;;;;;5073673;28;20462;-77
2021/06/20 10:28:04;;;;;;;13.90;4.70;;;27.90;57.40;;;;;;5070726;28;20456;-75
2021/06/20 10:30:34;;;;;;;8.30;4.00;;;27.80;58.40;;;;;;5075996;28;20430;-76
2021/06/20 10:33:20;;;;;;;16.40;4.43;;;27.80;58.10;;;;;;5072206;28;20924;-76
2021/06/20 10:36:02;;;;;;;10.70;3.90;;;28.00;58.00;;;;;;5075946;28;20979;-76
2021/06/20 10:38:38;;;;;;;9.47;4.50;;;28.00;56.60;;;;;;5080700;28;20426;-76
2021/06/20 10:41:05;;;;;;;8.30;4.20;;;28.10;56.90;;;;;;5076159;28;20464;-75
2021/06/20 10:43:31;;;;;;;8.20;4.17;;;28.30;56.40;;;;;;5076023;28;20444;-75
2021/06/20 10:45:57;;;;;;;11.83;4.83;;;28.50;55.20;;;;;;5077909;28;20818;-77
2021/06/20 10:48:28;;;;;;;7.80;4.00;;;28.60;55.00;;;;;;5075166;28;20803;-78
2021/06/20 10:50:58;;;;;;;10.27;4.10;;;28.90;53.20;;;;;;5072245;28;20188;-76
2021/06/20 10:53:26;;;;;;;10.67;4.20;;;29.10;52.20;;;;;;5070950;28;20909;-78
2021/06/20 10:55:58;;;;;;;8.00;3.43;;;29.00;52.00;;;;;;5071674;28;20441;-77
2021/06/20 10:58:34;;;;;;;6.37;3.63;;;29.10;52.10;;;;;;5076790;28;20472;-76
2021/06/20 11:01:15;;;;;;;14.63;3.80;;;29.10;52.40;;;;;;5072332;28;20505;-76
2021/06/20 11:03:45;;;;;;;10.37;4.10;;;29.10;52.90;;;;;;5072513;28;20781;-75
2021/06/20 11:06:15;;;;;;;11.37;3.80;;;29.20;52.00;;;;;;5072204;28;20465;-77
2021/06/20 11:08:53;;;;;;;9.23;3.80;;;29.30;52.40;;;;;;5071846;28;20414;-76
2021/06/20 11:11:24;;;;;;;5.63;3.30;;;29.40;51.80;;;;;;5070290;28;20437;-76
2021/06/20 11:13:56;;;;;;;10.57;4.43;;;29.40;51.70;;;;;;5072285;28;20426;-76
2021/06/20 11:16:24;;;;;;;11.50;4.97;;;29.50;52.50;;;;;;5072272;28;20780;-75
2021/06/20 11:19:06;;;;;;;9.63;3.57;;;29.60;51.70;;;;;;5072444;28;20900;-75
2021/06/20 11:21:56;;;;;;;8.70;3.50;;;29.70;52.00;;;;;;5066145;28;20560;-75
2021/06/20 11:24:24;;;;;;;9.70;4.37;;;29.50;52.10;;;;;;5071536;28;20437;-76
2021/06/20 11:27:21;;;;;;;8.30;3.40;;;29.60;52.50;;;;;;5065552;28;20484;-76
2021/06/20 11:29:49;;;;;;;10.63;4.67;;;29.80;52.10;;;;;;5072049;28;20792;-76
2021/06/20 11:32:21;;;;;;;6.33;3.50;;;29.70;52.50;;;;;;5071683;28;20476;-75
2021/06/20 11:34:50;;;;;;;9.73;4.10;;;29.90;52.00;;;;;;5065920;28;20477;-76
2021/06/20 11:37:25;;;;;;;11.60;4.53;;;29.90;52.20;;;;;;5072491;28;20425;-76
2021/06/20 11:39:56;;;;;;;9.90;4.30;;;30.30;51.20;;;;;;5064781;28;20521;-76
2021/06/20 11:42:35;;;;;;;9.87;4.03;;;30.50;51.30;;;;;;5068062;28;20462;-75
2021/06/20 11:45:14;;;;;;;13.70;4.17;;;30.80;50.70;;;;;;5079137;28;20469;-76
2021/06/20 11:47:52;;;;;;;12.07;4.67;;;31.10;49.00;;;;;;5072215;28;20540;-75
2021/06/20 11:50:24;;;;;;;8.53;4.00;;;31.00;48.60;;;;;;5070684;28;20425;-77
2021/06/20 11:52:55;;;;;;;20.40;4.30;;;30.80;49.70;;;;;;5071367;28;20492;-77
2021/06/20 11:55:24;;;;;;;13.47;4.43;;;30.90;49.40;;;;;;5071958;28;20449;-77
2021/06/20 11:57:51;;;;;;;15.50;4.43;;;30.90;49.90;;;;;;5065467;28;20898;-76
2021/06/20 12:00:20;;;;;;;11.03;4.43;;;31.20;48.70;;;;;;5076669;28;20414;-76
2021/06/20 12:03:07;;;;;;;16.07;4.90;;;30.90;49.00;;;;;;5075877;28;20497;-75
2021/06/20 12:05:47;;;;;;;13.20;4.40;;;30.80;49.80;;;;;;5071498;28;20445;-77
2021/06/20 12:08:14;;;;;;;15.03;5.10;;;31.10;48.60;;;;;;5071322;28;20449;-76
2021/06/20 12:10:45;;;;;;;15.60;4.70;;;31.50;47.10;;;;;;5069976;28;20422;-77
2021/06/20 12:13:12;;;;;;;11.33;4.47;;;31.60;46.20;;;;;;5071823;28;20418;-76
2021/06/20 12:15:40;;;;;;;17.57;4.43;;;31.60;46.20;;;;;;5071941;28;20438;-75
2021/06/20 12:18:07;;;;;;;19.43;5.50;;;31.60;46.70;;;;;;5072238;28;20425;-76
2021/06/20 12:20:42;;;;;;;14.63;5.20;;;31.70;44.30;;;;;;5072132;28;20426;-77
2021/06/20 12:23:20;;;;;;;21.27;5.33;;;31.70;43.80;;;;;;5071955;28;20505;-76
2021/06/20 12:25:48;;;;;;;21.03;5.07;;;31.70;43.00;;;;;;5070670;28;20952;-78
2021/06/20 12:28:16;;;;;;;21.53;5.57;;;32.20;43.20;;;;;;5073437;28;20411;-77
2021/06/20 12:30:42;;;;;;;14.43;4.90;;;32.50;43.50;;;;;;5075314;28;20441;-76
2021/06/20 12:33:11;;;;;;;14.73;4.50;;;33.00;43.20;;;;;;5070730;28;20442;-76
2021/06/20 12:35:37;;;;;;;20.93;5.40;;;33.10;43.50;;;;;;5071940;28;20442;-76
2021/06/20 12:38:17;;;;;;;16.57;5.87;;;33.20;44.10;;;;;;5070627;28;20422;-76
2021/06/20 12:40:44;;;;;;;13.40;5.10;;;33.30;42.70;;;;;;5071318;28;20943;-77